KPIT/PIT METAR and TAF weather

Enter ICAO airport designator
Station Type Date Time Source
KPIT METAR 2020/12/05 04:51 UTC NOAA

KPIT 050451Z 27003KT 10SM FEW040 SCT100 SCT250 02/01 A2988 RMK AO2 SLP134 T00220011 400560017


Station Type Date Time Source
KPIT Decoded METAR 2020/12/05 04:51 UTC NOAA

GREATER PITTSBURGH INTERNATIONAL , PA, United States (KPIT) 40-29N 80-14W 357M
Dec 04, 2020 - 11:51 PM EST / 2020.12.05 0451 UTC
Wind: from the W (270 degrees) at 3 MPH (3 KT):0
Visibility: 10 mile(s):0
Sky conditions: partly cloudy
Temperature: 36.0 F (2.2 C)
Dew Point: 34.0 F (1.1 C)
Relative Humidity: 92%
Pressure (altimeter): 29.88 in. Hg (1011 hPa)
ob: KPIT 050451Z 27003KT 10SM FEW040 SCT100 SCT250 02/01 A2988 RMK AO2 SLP134 T00220011 400560017
cycle: 5

Station Type Date Time Source
KPIT TAF 2020/12/05 06:22 UTC NOAA

TAF KPIT 050520Z 0506/0612 29005KT P6SM BKN035
FM050800 32010KT P6SM OVC020
TEMPO 0518/0522 -SHSN

Example: see airport list